Time,TemperatureF,DewpointF,PressureIn,WindDirection,WindDirectionDegrees,WindSpeedMPH,WindSpeedGustMPH,Humidity,HourlyPrecipIn,Conditions,Clouds,dailyrainin,SoftwareType,DateUTC
2013-03-13 00:10:00,-999.0,-99.9,30.02,North,-999,-999.0,-999.0,-999,-99.99,,,0.00,weatherlink.com 1.10,2013-03-13 04:10:00,
2013-03-13 00:25:00,-999.0,-99.9,30.02,North,-999,-999.0,-999.0,-999,-99.99,,,0.00,weatherlink.com 1.10,2013-03-13 04:25:00,
2013-03-13 00:40:00,-999.0,-99.9,30.02,North,-999,-999.0,-999.0,-999,-99.99,,,0.00,weatherlink.com 1.10,2013-03-13 04:40:00,
2013-03-13 00:55:00,-999.0,-99.9,30.02,North,-999,-999.0,-999.0,-999,-99.99,,,0.00,weatherlink.com 1.10,2013-03-13 04:55:00,
2013-03-13 01:10:00,-999.0,-99.9,30.02,North,-999,-999.0,-999.0,-999,-99.99,,,0.00,weatherlink.com 1.10,2013-03-13 05:10:00,
2013-03-13 01:25:00,-999.0,-99.9,30.02,North,-999,-999.0,-999.0,-999,-99.99,,,0.00,weatherlink.com 1.10,2013-03-13 05:25:00,
2013-03-13 01:40:00,-999.0,-99.9,30.01,North,-999,-999.0,-999.0,-999,-99.99,,,0.00,weatherlink.com 1.10,2013-03-13 05:40:00,
2013-03-13 01:55:00,-999.0,-99.9,30.02,North,-999,-999.0,-999.0,-999,-99.99,,,0.00,weatherlink.com 1.10,2013-03-13 05:55:00,
2013-03-13 02:10:00,-999.0,-99.9,30.02,North,-999,-999.0,-999.0,-999,-99.99,,,0.00,weatherlink.com 1.10,2013-03-13 06:10:00,
2013-03-13 02:25:00,-999.0,-99.9,30.02,North,-999,-999.0,-999.0,-999,-99.99,,,0.00,weatherlink.com 1.10,2013-03-13 06:25:00,
2013-03-13 02:40:00,-999.0,-99.9,30.02,North,-999,-999.0,-999.0,-999,-99.99,,,0.00,weatherlink.com 1.10,2013-03-13 06:40:00,
2013-03-13 02:55:00,-999.0,-99.9,30.02,North,-999,-999.0,-999.0,-999,-99.99,,,0.00,weatherlink.com 1.10,2013-03-13 06:55:00,
2013-03-13 03:10:00,-999.0,-99.9,30.01,North,-999,-999.0,-999.0,-999,-99.99,,,0.00,weatherlink.com 1.10,2013-03-13 07:10:00,
2013-03-13 03:25:00,-999.0,-99.9,30.01,North,-999,-999.0,-999.0,-999,-99.99,,,0.00,weatherlink.com 1.10,2013-03-13 07:25:00,
2013-03-13 03:40:00,-999.0,-99.9,30.01,North,-999,-999.0,-999.0,-999,-99.99,,,0.00,weatherlink.com 1.10,2013-03-13 07:40:00,
2013-03-13 03:55:00,-999.0,-99.9,30.02,North,-999,-999.0,-999.0,-999,-99.99,,,0.00,weatherlink.com 1.10,2013-03-13 07:55:00,
2013-03-13 04:10:00,-999.0,-99.9,30.02,North,-999,-999.0,-999.0,-999,-99.99,,,0.00,weatherlink.com 1.10,2013-03-13 08:10:00,
2013-03-13 04:25:00,-999.0,-99.9,30.02,North,-999,-999.0,-999.0,-999,-99.99,,,0.00,weatherlink.com 1.10,2013-03-13 08:25:00,
2013-03-13 04:40:00,-999.0,-99.9,30.02,North,-999,-999.0,-999.0,-999,-99.99,,,0.00,weatherlink.com 1.10,2013-03-13 08:40:00,
2013-03-13 04:55:00,-999.0,-99.9,30.03,North,-999,-999.0,-999.0,-999,-99.99,,,0.00,weatherlink.com 1.10,2013-03-13 08:55:00,
2013-03-13 05:10:00,-999.0,-99.9,30.03,North,-999,-999.0,-999.0,-999,-99.99,,,0.00,weatherlink.com 1.10,2013-03-13 09:10:00,
2013-03-13 05:25:00,-999.0,-99.9,30.03,North,-999,-999.0,-999.0,-999,-99.99,,,0.00,weatherlink.com 1.10,2013-03-13 09:25:00,
2013-03-13 05:40:00,-999.0,-99.9,30.04,North,-999,-999.0,-999.0,-999,-99.99,,,0.00,weatherlink.com 1.10,2013-03-13 09:40:00,
2013-03-13 05:55:00,-999.0,-99.9,30.05,North,-999,-999.0,-999.0,-999,-99.99,,,0.00,weatherlink.com 1.10,2013-03-13 09:55:00,
2013-03-13 06:10:00,-999.0,-99.9,30.05,North,-999,-999.0,-999.0,-999,-99.99,,,0.00,weatherlink.com 1.10,2013-03-13 10:10:00,
2013-03-13 06:25:00,-999.0,-99.9,30.05,North,-999,-999.0,-999.0,-999,-99.99,,,0.00,weatherlink.com 1.10,2013-03-13 10:25:00,
2013-03-13 06:40:00,-999.0,-99.9,30.06,North,-999,-999.0,-999.0,-999,-99.99,,,0.00,weatherlink.com 1.10,2013-03-13 10:40:00,
2013-03-13 06:55:00,-999.0,-99.9,30.07,North,-999,-999.0,-999.0,-999,-99.99,,,0.00,weatherlink.com 1.10,2013-03-13 10:55:00,
2013-03-13 07:10:00,-999.0,-99.9,30.07,North,-999,-999.0,-999.0,-999,-99.99,,,0.00,weatherlink.com 1.10,2013-03-13 11:10:00,
2013-03-13 07:25:00,-999.0,-99.9,30.09,North,-999,-999.0,-999.0,-999,-99.99,,,0.00,weatherlink.com 1.10,2013-03-13 11:25:00,
2013-03-13 07:40:00,-999.0,-99.9,30.09,North,-999,-999.0,-999.0,-999,-99.99,,,0.00,weatherlink.com 1.10,2013-03-13 11:40:00,
2013-03-13 07:55:00,-999.0,-99.9,30.09,North,-999,-999.0,-999.0,-999,-99.99,,,0.00,weatherlink.com 1.10,2013-03-13 11:55:00,
2013-03-13 08:10:00,-999.0,-99.9,30.09,North,-999,-999.0,-999.0,-999,-99.99,,,0.00,weatherlink.com 1.10,2013-03-13 12:10:00,
2013-03-13 08:25:00,-999.0,-99.9,30.10,North,-999,-999.0,-999.0,-999,-99.99,,,0.00,weatherlink.com 1.10,2013-03-13 12:25:00,
2013-03-13 08:40:00,-999.0,-99.9,30.11,North,-999,-999.0,-999.0,-999,-99.99,,,0.00,weatherlink.com 1.10,2013-03-13 12:40:00,
2013-03-13 08:55:00,-999.0,-99.9,30.11,North,-999,-999.0,-999.0,-999,-99.99,,,0.00,weatherlink.com 1.10,2013-03-13 12:55:00,
2013-03-13 09:10:00,60.0,49.0,30.12,NNE,26,12.0,-999.0,66,-99.99,,,0.00,weatherlink.com 1.10,2013-03-13 13:10:00,
2013-03-13 09:25:00,60.2,48.0,30.12,NNE,21,13.0,-999.0,64,-99.99,,,0.00,weatherlink.com 1.10,2013-03-13 13:25:00,
2013-03-13 09:40:00,60.6,47.0,30.12,NNE,29,19.0,-999.0,61,-99.99,,,0.00,weatherlink.com 1.10,2013-03-13 13:40:00,
2013-03-13 09:55:00,60.8,45.0,30.13,North,360,17.0,-999.0,57,-99.99,,,0.00,weatherlink.com 1.10,2013-03-13 13:55:00,
2013-03-13 10:10:00,61.2,47.0,30.13,NNE,22,10.0,-999.0,60,-99.99,,,0.00,weatherlink.com 1.10,2013-03-13 14:10:00,
2013-03-13 10:25:00,61.7,45.0,30.14,North,5,13.0,-999.0,55,-99.99,,,0.00,weatherlink.com 1.10,2013-03-13 14:25:00,
2013-03-13 10:40:00,62.3,42.0,30.14,NNE,12,18.0,-999.0,48,-99.99,,,0.00,weatherlink.com 1.10,2013-03-13 14:40:00,
2013-03-13 10:55:00,62.9,42.0,30.14,ENE,62,12.0,-999.0,47,-99.99,,,0.00,weatherlink.com 1.10,2013-03-13 14:55:00,
2013-03-13 11:10:00,63.5,43.0,30.15,NNE,24,11.0,-999.0,47,-99.99,,,0.00,weatherlink.com 1.10,2013-03-13 15:10:00,
2013-03-13 11:25:00,64.0,43.0,30.14,NNE,22,12.0,-999.0,46,-99.99,,,0.00,weatherlink.com 1.10,2013-03-13 15:25:00,
2013-03-13 11:40:00,64.8,40.0,30.14,NNE,28,12.0,-999.0,41,-99.99,,,0.00,weatherlink.com 1.10,2013-03-13 15:40:00,
2013-03-13 11:55:00,65.1,44.0,30.15,North,5,7.0,-999.0,46,-99.99,,,0.00,weatherlink.com 1.10,2013-03-13 15:55:00,
2013-03-13 12:10:00,65.7,40.0,30.15,North,11,13.0,-999.0,39,-99.99,,,0.00,weatherlink.com 1.10,2013-03-13 16:10:00,
2013-03-13 12:25:00,65.2,43.0,30.15,North,360,9.0,-999.0,44,-99.99,,,0.00,weatherlink.com 1.10,2013-03-13 16:25:00,
2013-03-13 12:40:00,65.1,40.0,30.16,North,360,13.0,-999.0,40,-99.99,,,0.00,weatherlink.com 1.10,2013-03-13 16:40:00,
2013-03-13 12:55:00,64.8,42.0,30.16,North,5,13.0,-999.0,43,-99.99,,,0.00,weatherlink.com 1.10,2013-03-13 16:55:00,
2013-03-13 13:10:00,64.5,37.0,30.16,North,360,12.0,-999.0,36,-99.99,,,0.00,weatherlink.com 1.10,2013-03-13 17:10:00,
2013-03-13 13:25:00,64.7,38.0,30.15,NE,34,12.0,-999.0,38,-99.99,,,0.00,weatherlink.com 1.10,2013-03-13 17:25:00,
2013-03-13 13:40:00,65.0,44.0,30.15,North,11,11.0,-999.0,46,-99.99,,,0.00,weatherlink.com 1.10,2013-03-13 17:40:00,
2013-03-13 13:55:00,64.9,42.0,30.14,NNE,13,17.0,-999.0,44,-99.99,,,0.00,weatherlink.com 1.10,2013-03-13 17:55:00,
2013-03-13 14:10:00,65.0,42.0,30.13,North,355,12.0,-999.0,43,-99.99,,,0.00,weatherlink.com 1.10,2013-03-13 18:10:00,
2013-03-13 14:25:00,65.4,44.0,30.12,NNE,14,5.0,-999.0,47,-99.99,,,0.00,weatherlink.com 1.10,2013-03-13 18:25:00,
2013-03-13 14:40:00,65.8,43.0,30.11,North,355,14.0,-999.0,44,-99.99,,,0.00,weatherlink.com 1.10,2013-03-13 18:40:00,
2013-03-13 14:55:00,65.8,45.0,30.11,North,355,12.0,-999.0,47,-99.99,,,0.00,weatherlink.com 1.10,2013-03-13 18:55:00,
2013-03-13 15:10:00,66.1,46.0,30.10,North,10,13.0,-999.0,49,-99.99,,,0.00,weatherlink.com 1.10,2013-03-13 19:10:00,
2013-03-13 15:25:00,65.7,46.0,30.10,North,355,6.0,-999.0,49,-99.99,,,0.00,weatherlink.com 1.10,2013-03-13 19:25:00,
2013-03-13 15:40:00,66.0,48.0,30.10,NNW,342,4.0,-999.0,52,-99.99,,,0.00,weatherlink.com 1.10,2013-03-13 19:40:00,
2013-03-13 15:55:00,66.1,49.0,30.09,North,360,6.0,-999.0,55,-99.99,,,0.00,weatherlink.com 1.10,2013-03-13 19:55:00,
2013-03-13 16:10:00,65.6,49.0,30.09,North,5,4.0,-999.0,56,-99.99,,,0.00,weatherlink.com 1.10,2013-03-13 20:10:00,
2013-03-13 16:25:00,64.9,49.0,30.09,NNW,340,5.0,-999.0,57,-99.99,,,0.00,weatherlink.com 1.10,2013-03-13 20:25:00,
2013-03-13 16:40:00,65.1,49.0,30.09,NNW,348,5.0,-999.0,57,-99.99,,,0.00,weatherlink.com 1.10,2013-03-13 20:40:00,
2013-03-13 16:55:00,64.7,49.0,30.08,North,360,7.0,-999.0,58,-99.99,,,0.00,weatherlink.com 1.10,2013-03-13 20:55:00,
2013-03-13 17:10:00,65.0,49.0,30.08,North,5,7.0,-999.0,57,-99.99,,,0.00,weatherlink.com 1.10,2013-03-13 21:10:00,
2013-03-13 17:25:00,65.4,50.0,30.08,NNW,332,2.0,-999.0,57,-99.99,,,0.00,weatherlink.com 1.10,2013-03-13 21:25:00,
2013-03-13 17:40:00,65.6,48.0,30.08,NNW,335,8.0,-999.0,54,-99.99,,,0.00,weatherlink.com 1.10,2013-03-13 21:40:00,
2013-03-13 17:55:00,65.0,50.0,30.07,NW,325,5.0,-999.0,58,-99.99,,,0.00,weatherlink.com 1.10,2013-03-13 21:55:00,
2013-03-13 18:10:00,64.5,49.0,30.08,NNW,333,4.0,-999.0,57,-99.99,,,0.00,weatherlink.com 1.10,2013-03-13 22:10:00,
2013-03-13 18:25:00,63.8,48.0,30.08,NNW,336,4.0,-999.0,57,-99.99,,,0.00,weatherlink.com 1.10,2013-03-13 22:25:00,
2013-03-13 18:40:00,63.5,47.0,30.08,NW,313,4.0,-999.0,55,-99.99,,,0.00,weatherlink.com 1.10,2013-03-13 22:40:00,
2013-03-13 18:55:00,63.2,47.0,30.08,NNW,336,9.0,-999.0,55,-99.99,,,0.00,weatherlink.com 1.10,2013-03-13 22:55:00,
2013-03-13 19:10:00,62.7,46.0,30.09,NNW,346,6.0,-999.0,54,-99.99,,,0.00,weatherlink.com 1.10,2013-03-13 23:10:00,
2013-03-13 19:25:00,62.2,47.0,30.09,North,349,2.0,-999.0,57,-99.99,,,0.00,weatherlink.com 1.10,2013-03-13 23:25:00,
2013-03-13 19:40:00,-999.0,-99.9,30.09,North,-999,-999.0,-999.0,-999,-99.99,,,0.00,weatherlink.com 1.10,2013-03-13 23:40:00,
2013-03-13 19:55:00,-999.0,-99.9,30.10,North,-999,-999.0,-999.0,-999,-99.99,,,0.00,weatherlink.com 1.10,2013-03-13 23:55:00,
2013-03-13 20:10:00,-999.0,-99.9,30.10,North,-999,-999.0,-999.0,-999,-99.99,,,0.00,weatherlink.com 1.10,2013-03-14 00:10:00,
2013-03-13 20:25:00,-999.0,-99.9,30.11,North,-999,-999.0,-999.0,-999,-99.99,,,0.00,weatherlink.com 1.10,2013-03-14 00:25:00,
2013-03-13 20:40:00,-999.0,-99.9,30.11,North,-999,-999.0,-999.0,-999,-99.99,,,0.00,weatherlink.com 1.10,2013-03-14 00:40:00,
2013-03-13 20:55:00,-999.0,-99.9,30.11,North,-999,-999.0,-999.0,-999,-99.99,,,0.00,weatherlink.com 1.10,2013-03-14 00:55:00,
2013-03-13 21:10:00,-999.0,-99.9,30.12,North,-999,-999.0,-999.0,-999,-99.99,,,0.00,weatherlink.com 1.10,2013-03-14 01:10:00,
2013-03-13 21:25:00,-999.0,-99.9,30.12,North,-999,-999.0,-999.0,-999,-99.99,,,0.00,weatherlink.com 1.10,2013-03-14 01:25:00,
2013-03-13 21:40:00,-999.0,-99.9,30.13,North,-999,-999.0,-999.0,-999,-99.99,,,0.00,weatherlink.com 1.10,2013-03-14 01:40:00,
2013-03-13 21:55:00,-999.0,-99.9,30.14,North,-999,-999.0,-999.0,-999,-99.99,,,0.00,weatherlink.com 1.10,2013-03-14 01:55:00,
2013-03-13 22:10:00,-999.0,-99.9,30.14,North,-999,-999.0,-999.0,-999,-99.99,,,0.00,weatherlink.com 1.10,2013-03-14 02:10:00,
2013-03-13 22:25:00,-999.0,-99.9,30.15,North,-999,-999.0,-999.0,-999,-99.99,,,0.00,weatherlink.com 1.10,2013-03-14 02:25:00,
2013-03-13 22:40:00,-999.0,-99.9,30.16,North,-999,-999.0,-999.0,-999,-99.99,,,0.00,weatherlink.com 1.10,2013-03-14 02:40:00,
2013-03-13 22:55:00,-999.0,-99.9,30.16,North,-999,-999.0,-999.0,-999,-99.99,,,0.00,weatherlink.com 1.10,2013-03-14 02:55:00,
2013-03-13 23:10:00,-999.0,-99.9,30.15,North,-999,-999.0,-999.0,-999,-99.99,,,0.00,weatherlink.com 1.10,2013-03-14 03:10:00,
2013-03-13 23:40:00,-999.0,-99.9,30.16,North,-999,-999.0,-999.0,-999,-99.99,,,0.00,weatherlink.com 1.10,2013-03-14 03:40:00,
2013-03-13 23:55:00,-999.0,-99.9,30.16,North,-999,-999.0,-999.0,-999,-99.99,,,0.00,weatherlink.com 1.10,2013-03-14 03:55:00,